Time;durP1;ratioP1;P1;durP2;ratioP2;P2;SDS_P1;SDS_P2;PMS_P1;PMS_P2;Temp;Humidity;BMP_temperature;BMP_pressure;BME280_temperature;BME280_humidity;BME280_pressure;Samples;Min_cycle;Max_cycle;Signal;HPM_P1;HPM_P2
2021/12/20 00:01:31;;;;;;;65.20;58.75;;;-2.20;99.90;;;;;;4160333;28;20563;-46
2021/12/20 00:03:34;;;;;;;59.97;54.67;;;-2.30;99.90;;;;;;4159727;28;20061;-46
2021/12/20 00:05:37;;;;;;;59.78;54.03;;;-2.30;99.90;;;;;;4162216;28;20564;-46
2021/12/20 00:07:39;;;;;;;64.05;57.67;;;-2.20;99.90;;;;;;4158113;28;20076;-50
2021/12/20 00:09:42;;;;;;;62.53;56.17;;;-2.10;99.90;;;;;;4155187;28;20502;-46
2021/12/20 00:11:44;;;;;;;64.63;58.22;;;-2.00;99.90;;;;;;4150966;28;20045;-45
2021/12/20 00:13:46;;;;;;;61.88;56.47;;;-2.00;99.90;;;;;;4161191;28;20083;-46
2021/12/20 00:15:48;;;;;;;63.13;57.30;;;-2.00;99.90;;;;;;4159554;28;20075;-48
2021/12/20 00:17:50;;;;;;;67.40;60.70;;;-2.10;99.90;;;;;;4161009;28;20374;-47
2021/12/20 00:19:54;;;;;;;70.60;63.05;;;-2.20;99.90;;;;;;4160438;28;20033;-47
2021/12/20 00:21:56;;;;;;;69.32;61.97;;;-2.20;99.90;;;;;;4159413;28;20486;-47
2021/12/20 00:24:03;;;;;;;70.95;63.53;;;-2.20;99.90;;;;;;4157643;28;20037;-48
2021/12/20 00:26:05;;;;;;;71.47;64.40;;;-2.40;99.90;;;;;;4154240;28;20041;-49
2021/12/20 00:28:07;;;;;;;66.88;60.60;;;-2.50;99.90;;;;;;4148812;28;20061;-46
2021/12/20 00:30:10;;;;;;;66.57;60.58;;;-2.60;99.90;;;;;;4160807;28;20544;-49
2021/12/20 00:32:13;;;;;;;63.75;57.80;;;-2.70;99.90;;;;;;4160425;28;20049;-49
2021/12/20 00:34:15;;;;;;;66.32;59.90;;;-2.70;99.90;;;;;;4160627;28;20041;-46
2021/12/20 00:36:21;;;;;;;63.72;57.47;;;-2.70;99.90;;;;;;4159540;28;20038;-49
2021/12/20 00:40:44;;;;;;;63.00;57.13;;;-2.70;99.90;;;;;;4159110;28;20034;-46
2021/12/20 00:42:51;;;;;;;64.05;57.85;;;-2.60;99.90;;;;;;4160253;28;20402;-47
2021/12/20 00:44:53;;;;;;;57.28;52.08;;;-2.70;99.90;;;;;;4160226;28;20685;-47
2021/12/20 00:46:55;;;;;;;55.80;50.85;;;-2.60;99.90;;;;;;4159718;28;20453;-49
2021/12/20 00:48:57;;;;;;;56.67;52.20;;;-2.60;99.90;;;;;;4149340;28;20046;-47
2021/12/20 00:51:00;;;;;;;58.42;53.30;;;-2.60;99.90;;;;;;4160643;28;20041;-47
2021/12/20 00:53:02;;;;;;;58.97;53.50;;;-2.60;99.90;;;;;;4160469;28;20099;-45
2021/12/20 00:55:05;;;;;;;66.00;59.72;;;-2.60;99.90;;;;;;4153771;28;20042;-50
2021/12/20 00:57:07;;;;;;;;;;;-2.70;99.90;;;;;;4148689;28;20042;-49
2021/12/20 00:59:09;;;;;;;58.25;53.20;;;-2.60;99.90;;;;;;4160055;28;20593;-47
2021/12/20 01:01:11;;;;;;;60.72;54.90;;;-2.60;99.90;;;;;;4146559;28;20038;-46
2021/12/20 01:03:16;;;;;;;60.85;55.47;;;-2.70;99.90;;;;;;4160696;28;20041;-47
2021/12/20 01:05:19;;;;;;;65.90;59.55;;;-2.60;99.90;;;;;;4154396;28;20045;-47
2021/12/20 01:07:21;;;;;;;67.88;61.08;;;-2.70;99.90;;;;;;4159959;28;20510;-50
2021/12/20 01:09:23;;;;;;;71.88;64.88;;;-2.60;99.90;;;;;;4159302;28;20537;-48
2021/12/20 01:11:27;;;;;;;70.35;63.03;;;-2.50;99.90;;;;;;4160655;28;20044;-49
2021/12/20 01:13:31;;;;;;;64.85;58.45;;;-2.50;99.90;;;;;;4156374;28;20037;-49
2021/12/20 01:15:37;;;;;;;63.25;57.20;;;-2.50;99.90;;;;;;4158984;28;20176;-50
2021/12/20 01:17:39;;;;;;;58.97;53.47;;;-2.50;99.90;;;;;;4147948;28;20099;-46
2021/12/20 01:19:41;;;;;;;62.58;56.30;;;-2.50;99.90;;;;;;4160409;28;20042;-46
2021/12/20 01:21:44;;;;;;;64.85;59.20;;;-2.60;99.90;;;;;;4159640;28;20088;-46
2021/12/20 01:23:46;;;;;;;67.07;60.42;;;-2.70;99.90;;;;;;4159175;28;20095;-48
2021/12/20 01:25:48;;;;;;;62.53;56.72;;;-2.70;99.90;;;;;;4157978;28;20457;-47
2021/12/20 01:27:51;;;;;;;60.60;54.75;;;-2.70;99.90;;;;;;4159227;28;20406;-50
2021/12/20 01:29:53;;;;;;;60.67;54.88;;;-2.70;99.90;;;;;;4151722;28;20046;-49
2021/12/20 01:31:55;;;;;;;63.78;57.55;;;-2.70;99.90;;;;;;4158941;28;20053;-48
2021/12/20 01:33:58;;;;;;;62.70;57.10;;;-2.60;99.90;;;;;;4160898;28;20404;-49
2021/12/20 01:36:00;;;;;;;64.47;58.38;;;-2.50;99.90;;;;;;4162620;28;20553;-46
2021/12/20 01:38:03;;;;;;;65.80;59.28;;;-2.60;99.90;;;;;;4163571;28;20068;-48
2021/12/20 01:40:08;;;;;;;63.60;57.90;;;-2.70;99.90;;;;;;4162039;28;20045;-47
2021/12/20 01:42:19;;;;;;;63.05;56.95;;;-2.70;99.90;;;;;;4163577;28;20041;-49
2021/12/20 01:44:21;;;;;;;63.40;57.28;;;-2.70;99.90;;;;;;4162057;28;20521;-48
2021/12/20 01:46:24;;;;;;;60.83;55.45;;;-2.70;99.90;;;;;;4163682;28;20156;-48
2021/12/20 01:48:27;;;;;;;67.80;61.22;;;-2.60;99.90;;;;;;4159251;28;20045;-48
2021/12/20 01:50:49;;;;;;;65.70;59.75;;;-2.70;99.90;;;;;;4163321;28;20041;-47
2021/12/20 01:52:51;;;;;;;58.35;52.72;;;-2.70;99.90;;;;;;4162134;28;20033;-50
2021/12/20 01:54:54;;;;;;;63.40;57.25;;;-2.70;99.90;;;;;;4157457;28;20044;-47
2021/12/20 01:56:56;;;;;;;63.28;57.50;;;-2.60;99.90;;;;;;4162955;28;20037;-47
2021/12/20 01:59:06;;;;;;;64.70;58.28;;;-2.60;99.90;;;;;;4151416;28;20038;-47
2021/12/20 02:03:12;;;;;;;71.18;63.60;;;-2.70;99.90;;;;;;4162934;28;20460;-48
2021/12/20 02:05:26;;;;;;;68.90;61.97;;;-2.70;99.90;;;;;;4161719;28;20048;-47
2021/12/20 02:07:50;;;;;;;70.95;63.67;;;-2.80;99.90;;;;;;4161149;28;20053;-48
2021/12/20 02:09:52;;;;;;;68.65;61.67;;;-2.90;99.90;;;;;;4162015;28;20042;-49
2021/12/20 02:11:54;;;;;;;68.15;60.90;;;-3.00;99.90;;;;;;4152040;28;20088;-49
2021/12/20 02:13:56;;;;;;;65.82;59.35;;;-3.00;99.90;;;;;;4164023;28;20037;-46
2021/12/20 02:16:00;;;;;;;64.40;57.92;;;-3.00;99.90;;;;;;4152268;28;20053;-48
2021/12/20 02:18:02;;;;;;;62.50;56.67;;;-2.90;99.90;;;;;;4162218;28;20041;-45
2021/12/20 02:20:05;;;;;;;;;;;-2.80;99.90;;;;;;4161959;28;20046;-47
2021/12/20 02:22:07;;;;;;;66.43;60.17;;;-2.90;99.90;;;;;;4163715;28;20337;-50
2021/12/20 02:24:09;;;;;;;62.90;56.90;;;-3.00;99.90;;;;;;4153999;28;20498;-46
2021/12/20 02:26:14;;;;;;;62.15;56.22;;;-3.00;99.90;;;;;;4161251;28;20053;-48
2021/12/20 02:28:18;;;;;;;65.20;59.25;;;-3.00;99.90;;;;;;4148956;28;20048;-48
2021/12/20 02:30:49;;;;;;;58.75;53.38;;;-3.00;99.90;;;;;;4163361;28;20046;-47
2021/12/20 02:37:30;;;;;;;65.53;59.22;;;-3.00;99.90;;;;;;4161827;28;20401;-49
2021/12/20 02:39:32;;;;;;;62.67;56.85;;;-3.00;99.90;;;;;;4155855;28;20088;-49
2021/12/20 02:41:35;;;;;;;68.47;62.28;;;-3.10;99.90;;;;;;4159763;28;20044;-49
2021/12/20 02:43:41;;;;;;;66.97;61.05;;;-3.10;99.90;;;;;;4162024;28;20049;-48
2021/12/20 02:45:44;;;;;;;65.63;59.60;;;-3.10;99.90;;;;;;4158352;28;20076;-49
2021/12/20 02:47:48;;;;;;;67.28;61.05;;;-3.10;99.90;;;;;;4162918;28;20468;-49
2021/12/20 02:49:50;;;;;;;68.32;62.47;;;-3.10;99.90;;;;;;4158190;28;20041;-45
2021/12/20 02:51:57;;;;;;;65.30;59.30;;;-3.00;99.90;;;;;;4163682;28;20041;-47
2021/12/20 02:54:03;;;;;;;63.95;58.22;;;-3.00;99.90;;;;;;4160876;28;20433;-49
2021/12/20 02:56:05;;;;;;;62.05;56.45;;;-3.00;99.90;;;;;;4162497;28;20172;-50
2021/12/20 02:58:08;;;;;;;64.25;58.10;;;-3.00;99.90;;;;;;4158027;28;20041;-49
2021/12/20 03:00:11;;;;;;;66.78;60.53;;;-3.10;99.90;;;;;;4163498;28;20037;-47
2021/12/20 03:02:13;;;;;;;70.03;63.25;;;-3.10;99.90;;;;;;4155052;28;20095;-47
2021/12/20 03:04:16;;;;;;;73.10;66.13;;;-3.20;99.90;;;;;;4163143;28;20112;-50
2021/12/20 03:06:24;;;;;;;68.82;61.97;;;-3.20;99.90;;;;;;4154321;28;20048;-47
2021/12/20 03:08:26;;;;;;;75.32;68.00;;;-3.20;99.90;;;;;;4154317;28;20060;-46
2021/12/20 03:10:30;;;;;;;69.30;62.63;;;-3.30;99.90;;;;;;4155107;28;20032;-46
2021/12/20 03:12:32;;;;;;;71.95;65.47;;;-3.40;99.90;;;;;;4162191;28;20103;-49
2021/12/20 03:14:39;;;;;;;70.18;63.67;;;-3.40;99.90;;;;;;4156499;28;20041;-49
2021/12/20 03:16:41;;;;;;;65.70;60.10;;;-3.20;99.90;;;;;;4161739;28;20034;-50
2021/12/20 03:18:44;;;;;;;70.85;64.20;;;-3.20;99.90;;;;;;4156658;28;20226;-48
2021/12/20 03:20:46;;;;;;;71.25;63.70;;;-3.20;99.90;;;;;;4152139;28;20049;-46
2021/12/20 03:22:48;;;;;;;69.18;62.20;;;-3.10;99.90;;;;;;4161467;28;20037;-47
2021/12/20 03:24:50;;;;;;;;;;;-3.10;99.90;;;;;;4152688;28;20044;-47
2021/12/20 03:26:53;;;;;;;67.70;61.85;;;-3.20;99.90;;;;;;4157383;28;19920;-48
2021/12/20 03:28:55;;;;;;;68.03;61.78;;;-3.20;99.90;;;;;;4162667;28;20040;-50
2021/12/20 03:30:57;;;;;;;67.93;61.40;;;-3.20;99.90;;;;;;4159968;28;20091;-49
2021/12/20 03:33:00;;;;;;;64.63;58.25;;;-3.30;99.90;;;;;;4162745;28;20045;-47
2021/12/20 03:35:03;;;;;;;70.18;63.35;;;-3.30;99.90;;;;;;4151969;28;20037;-47
2021/12/20 03:37:05;;;;;;;63.08;56.95;;;-3.30;99.90;;;;;;4157416;28;20038;-48
2021/12/20 03:39:08;;;;;;;66.53;60.33;;;-3.30;99.90;;;;;;4158491;28;20041;-48
2021/12/20 03:41:11;;;;;;;67.40;61.05;;;-3.20;99.90;;;;;;4162368;28;20539;-47
2021/12/20 03:43:13;;;;;;;65.20;59.00;;;-3.20;99.90;;;;;;4160372;28;20433;-49
2021/12/20 03:45:15;;;;;;;68.40;61.83;;;-3.30;99.90;;;;;;4161410;28;20052;-46
2021/12/20 03:47:17;;;;;;;63.60;58.05;;;-3.30;99.90;;;;;;4153167;28;20053;-46
2021/12/20 03:49:20;;;;;;;64.80;58.85;;;-3.40;99.90;;;;;;4161188;28;20673;-46
2021/12/20 03:51:22;;;;;;;60.55;55.65;;;-3.40;99.90;;;;;;4158798;28;20041;-49
2021/12/20 03:53:24;;;;;;;56.40;51.60;;;-3.30;99.90;;;;;;4160221;28;20063;-48
2021/12/20 03:55:26;;;;;;;58.72;53.60;;;-3.30;99.90;;;;;;4158326;28;20077;-49
2021/12/20 03:57:28;;;;;;;56.60;52.05;;;-3.30;99.90;;;;;;4161794;28;20045;-49
2021/12/20 03:59:31;;;;;;;56.25;52.00;;;-3.30;99.90;;;;;;4157741;28;20041;-49
2021/12/20 04:01:33;;;;;;;58.20;53.55;;;-3.30;99.90;;;;;;4161439;28;20033;-49
2021/12/20 04:03:36;;;;;;;55.20;50.65;;;-3.30;99.90;;;;;;4149822;28;20042;-48
2021/12/20 04:05:39;;;;;;;;;;;-3.30;99.90;;;;;;4162354;28;20041;-50
2021/12/20 04:07:41;;;;;;;59.38;54.63;;;-3.30;99.90;;;;;;4157987;28;19921;-48
2021/12/20 04:09:43;;;;;;;58.72;54.05;;;-3.30;99.90;;;;;;4161840;28;20544;-46
2021/12/20 04:11:46;;;;;;;63.72;58.30;;;-3.20;99.90;;;;;;4150775;28;20041;-46
2021/12/20 04:13:48;;;;;;;60.65;55.17;;;-3.20;99.90;;;;;;4167623;28;20102;-45
2021/12/20 04:15:50;;;;;;;64.40;58.47;;;-3.20;99.90;;;;;;4160545;28;20088;-46
2021/12/20 04:17:53;;;;;;;65.60;59.13;;;-3.20;99.90;;;;;;4161747;28;20068;-48
2021/12/20 04:19:55;;;;;;;61.42;56.30;;;-3.20;99.90;;;;;;4149733;28;20095;-46
2021/12/20 04:21:57;;;;;;;66.30;60.75;;;-3.20;99.90;;;;;;4159606;28;20262;-46
2021/12/20 04:23:59;;;;;;;67.25;60.28;;;-3.30;99.90;;;;;;4161055;28;20083;-48
2021/12/20 04:26:02;;;;;;;67.55;61.40;;;-3.30;99.90;;;;;;4158604;28;20042;-48
2021/12/20 04:28:04;;;;;;;65.22;59.63;;;-3.30;99.90;;;;;;4158160;28;20126;-49
2021/12/20 04:30:10;;;;;;;64.40;58.78;;;-3.20;99.90;;;;;;4161116;28;20257;-46
2021/12/20 04:32:12;;;;;;;60.40;55.42;;;-3.40;99.90;;;;;;4159516;28;20049;-46
2021/12/20 04:34:15;;;;;;;61.67;56.45;;;-3.40;99.90;;;;;;4161267;28;20131;-47
2021/12/20 04:36:18;;;;;;;61.30;56.10;;;-3.30;99.90;;;;;;4158712;28;20063;-47
2021/12/20 04:38:20;;;;;;;63.38;57.90;;;-3.30;99.90;;;;;;4160866;28;20041;-48
2021/12/20 04:40:23;;;;;;;64.00;58.58;;;-3.40;99.90;;;;;;4159265;28;20046;-46
2021/12/20 04:42:25;;;;;;;62.78;57.03;;;-3.40;99.90;;;;;;4160735;28;20421;-49
2021/12/20 04:44:27;;;;;;;61.40;56.20;;;-3.40;99.90;;;;;;4153431;28;20042;-49
2021/12/20 04:46:29;;;;;;;64.60;59.13;;;-3.50;99.90;;;;;;4159749;28;20037;-47
2021/12/20 04:48:32;;;;;;;65.40;59.95;;;-3.40;99.90;;;;;;4146386;28;20034;-46
2021/12/20 04:50:34;;;;;;;65.05;59.38;;;-3.50;99.90;;;;;;4160877;28;20048;-47
2021/12/20 04:52:36;;;;;;;64.18;58.60;;;-3.60;99.90;;;;;;4159900;28;20053;-50
2021/12/20 04:54:38;;;;;;;;;;;-3.50;99.90;;;;;;4160618;28;20060;-46
2021/12/20 04:56:41;;;;;;;56.60;51.97;;;-3.50;99.90;;;;;;4159646;28;20385;-46
2021/12/20 04:58:43;;;;;;;63.70;58.15;;;-3.40;99.90;;;;;;4161221;28;20029;-47
2021/12/20 05:00:45;;;;;;;61.75;56.58;;;-3.30;99.90;;;;;;4160370;28;20038;-49
2021/12/20 05:02:47;;;;;;;58.53;53.67;;;-3.30;99.90;;;;;;4157719;28;20029;-49
2021/12/20 05:04:50;;;;;;;60.35;55.22;;;-3.30;99.90;;;;;;4161059;28;20432;-47
2021/12/20 05:06:52;;;;;;;61.10;56.17;;;-3.40;99.90;;;;;;4159485;28;20126;-49
2021/12/20 05:08:55;;;;;;;61.05;55.60;;;-3.30;99.90;;;;;;4153614;28;20038;-48
2021/12/20 05:10:57;;;;;;;62.38;57.08;;;-3.30;99.90;;;;;;4162037;28;20045;-47
2021/12/20 05:13:03;;;;;;;60.33;55.30;;;-3.30;99.90;;;;;;4147836;28;20042;-47
2021/12/20 05:15:06;;;;;;;58.55;53.85;;;-3.30;99.90;;;;;;4162203;28;20037;-49
2021/12/20 05:17:10;;;;;;;60.50;55.15;;;-3.30;99.90;;;;;;4164237;28;20053;-47
2021/12/20 05:19:12;;;;;;;62.15;56.28;;;-3.40;99.90;;;;;;4157545;28;20043;-48
2021/12/20 05:21:14;;;;;;;60.45;55.30;;;-3.40;99.90;;;;;;4163969;28;20041;-48
2021/12/20 05:23:16;;;;;;;57.30;52.75;;;-3.40;99.90;;;;;;4162505;28;20038;-47
2021/12/20 05:25:18;;;;;;;57.13;52.70;;;-3.30;99.90;;;;;;4164219;28;20092;-47
2021/12/20 05:27:20;;;;;;;60.85;56.13;;;-3.20;99.90;;;;;;4162706;28;20048;-48
2021/12/20 05:29:24;;;;;;;62.92;57.10;;;-3.30;99.90;;;;;;4163998;28;20049;-49
2021/12/20 05:31:26;;;;;;;65.28;59.70;;;-3.30;99.90;;;;;;4160541;28;20049;-47
2021/12/20 05:33:28;;;;;;;64.25;58.78;;;-3.40;99.90;;;;;;4164879;28;20072;-49
2021/12/20 05:35:30;;;;;;;;;;;-3.30;99.90;;;;;;4160541;28;20040;-48
2021/12/20 05:37:33;;;;;;;60.55;55.15;;;-3.40;99.90;;;;;;4160917;28;19925;-48
2021/12/20 05:39:37;;;;;;;56.42;52.30;;;-3.30;99.90;;;;;;4157836;28;20033;-49
2021/12/20 05:41:40;;;;;;;55.58;51.22;;;-3.30;99.90;;;;;;4163539;28;20041;-48
2021/12/20 05:43:42;;;;;;;61.38;55.85;;;-3.20;99.90;;;;;;4161724;28;20497;-48
2021/12/20 05:45:46;;;;;;;63.40;57.42;;;-3.20;99.90;;;;;;4164569;28;20077;-46
2021/12/20 05:47:48;;;;;;;62.72;56.83;;;-3.30;99.90;;;;;;4159825;28;20041;-46
2021/12/20 05:49:51;;;;;;;63.08;57.53;;;-3.30;99.90;;;;;;4157210;28;20475;-48
2021/12/20 05:51:53;;;;;;;59.75;54.58;;;-3.30;99.90;;;;;;4156874;28;20069;-47
2021/12/20 05:53:55;;;;;;;60.63;54.70;;;-3.30;99.90;;;;;;4159536;28;20053;-46
2021/12/20 05:55:57;;;;;;;57.60;52.65;;;-3.20;99.90;;;;;;4160115;28;20034;-49
2021/12/20 05:57:59;;;;;;;54.10;49.60;;;-3.10;99.90;;;;;;4163593;28;20092;-50
2021/12/20 06:00:05;;;;;;;61.58;56.60;;;-3.00;99.90;;;;;;4160317;28;20030;-48
2021/12/20 06:02:08;;;;;;;56.90;52.08;;;-3.00;99.90;;;;;;4163137;28;20115;-50
2021/12/20 06:04:10;;;;;;;59.72;54.85;;;-3.00;99.90;;;;;;4160997;28;20041;-47
2021/12/20 06:06:12;;;;;;;59.45;54.33;;;-3.00;99.90;;;;;;4160373;28;20057;-48
2021/12/20 06:08:14;;;;;;;;;;;-3.00;99.90;;;;;;4158096;28;20124;-47
2021/12/20 06:10:18;;;;;;;61.65;56.55;;;-3.10;99.90;;;;;;4154232;28;19926;-48
2021/12/20 06:12:20;;;;;;;60.75;55.53;;;-3.10;99.90;;;;;;4155308;28;20045;-49
2021/12/20 06:14:22;;;;;;;62.88;57.20;;;-3.00;99.90;;;;;;4164032;28;20037;-49
2021/12/20 06:16:25;;;;;;;64.18;58.08;;;-3.10;99.90;;;;;;4161720;28;20042;-47
2021/12/20 06:18:27;;;;;;;65.70;59.35;;;-3.10;99.90;;;;;;4163911;28;20501;-47
2021/12/20 06:20:29;;;;;;;59.15;54.30;;;-3.10;99.90;;;;;;4154213;28;20050;-50
2021/12/20 06:22:31;;;;;;;63.28;58.17;;;-3.10;99.90;;;;;;4166482;28;20029;-48
2021/12/20 06:24:34;;;;;;;67.13;61.20;;;-3.00;99.90;;;;;;4163192;28;20045;-49
2021/12/20 06:26:36;;;;;;;66.20;60.05;;;-3.10;99.90;;;;;;4163123;28;20509;-49
2021/12/20 06:28:38;;;;;;;66.28;60.55;;;-3.00;99.90;;;;;;4161575;28;20545;-49
2021/12/20 06:30:41;;;;;;;63.17;57.97;;;-3.10;99.90;;;;;;4163531;28;20052;-49
2021/12/20 06:32:45;;;;;;;61.33;56.05;;;-2.90;99.90;;;;;;4161626;28;20124;-49
2021/12/20 06:35:07;;;;;;;;;;;-2.90;99.90;;;;;;4164957;28;20040;-49
2021/12/20 06:37:11;;;;;;;59.23;54.27;;;-2.90;99.90;;;;;;4163564;28;19954;-49
2021/12/20 06:39:13;;;;;;;59.63;54.80;;;-2.80;99.90;;;;;;4162593;28;20099;-49
2021/12/20 06:41:15;;;;;;;71.05;63.13;;;-2.70;99.90;;;;;;4163245;28;20038;-47
2021/12/20 06:43:18;;;;;;;62.72;57.30;;;-2.70;99.90;;;;;;4163701;28;20034;-48
2021/12/20 06:45:21;;;;;;;64.28;57.85;;;-2.70;99.90;;;;;;4158803;28;20734;-49
2021/12/20 06:47:23;;;;;;;63.40;57.35;;;-2.70;99.90;;;;;;4164008;28;20041;-50
2021/12/20 06:49:25;;;;;;;61.80;56.65;;;-2.70;99.90;;;;;;4153929;28;20045;-50
2021/12/20 06:51:27;;;;;;;68.55;61.75;;;-2.60;99.90;;;;;;4163247;28;20060;-49
2021/12/20 06:53:30;;;;;;;71.20;63.97;;;-2.60;99.90;;;;;;4161274;28;20577;-49
2021/12/20 06:55:33;;;;;;;73.15;65.50;;;-2.80;99.90;;;;;;4162254;28;20041;-47
2021/12/20 06:57:36;;;;;;;63.33;57.67;;;-2.80;99.90;;;;;;4159479;28;20037;-47
2021/12/20 06:59:38;;;;;;;63.40;58.13;;;-2.80;99.90;;;;;;4164062;28;20042;-49
2021/12/20 07:01:41;;;;;;;58.70;53.72;;;-2.80;99.90;;;;;;4154002;28;20435;-50
2021/12/20 07:03:43;;;;;;;62.22;56.78;;;-2.80;99.90;;;;;;4161971;28;20056;-45
2021/12/20 07:05:46;;;;;;;62.08;56.90;;;-2.70;99.90;;;;;;4148152;28;20080;-49
2021/12/20 07:07:48;;;;;;;;;;;-2.60;99.90;;;;;;4160676;28;20082;-46
2021/12/20 07:09:50;;;;;;;68.05;61.75;;;-2.60;99.90;;;;;;4148731;28;19925;-46
2021/12/20 07:11:53;;;;;;;72.72;65.75;;;-2.60;99.90;;;;;;4162595;28;20091;-47
2021/12/20 07:13:56;;;;;;;65.53;59.25;;;-2.60;99.90;;;;;;4161671;28;20045;-49
2021/12/20 07:15:58;;;;;;;59.95;55.20;;;-2.60;99.90;;;;;;4163189;28;20049;-46
2021/12/20 07:18:01;;;;;;;71.32;63.92;;;-2.60;99.90;;;;;;4151843;28;20517;-49
2021/12/20 07:20:04;;;;;;;70.95;64.05;;;-2.50;99.90;;;;;;4161419;28;20030;-50
2021/12/20 07:22:06;;;;;;;66.93;60.85;;;-2.60;99.90;;;;;;4163438;28;20037;-49
2021/12/20 07:24:08;;;;;;;66.07;60.40;;;-2.50;99.90;;;;;;4161050;28;20041;-49
2021/12/20 07:26:12;;;;;;;74.00;66.53;;;-2.40;99.90;;;;;;4161673;28;20528;-46
2021/12/20 07:28:14;;;;;;;55.55;51.28;;;-2.50;99.90;;;;;;4163268;28;20043;-49
2021/12/20 07:30:17;;;;;;;59.95;54.90;;;-2.50;99.90;;;;;;4163494;28;20049;-48
2021/12/20 07:32:19;;;;;;;75.72;67.90;;;-2.40;99.90;;;;;;4159975;28;20030;-47
2021/12/20 07:34:21;;;;;;;138.80;102.18;;;-2.50;99.90;;;;;;4163601;28;20037;-47
2021/12/20 07:36:23;;;;;;;88.90;79.43;;;-2.50;99.90;;;;;;4161061;28;20469;-46
2021/12/20 07:38:26;;;;;;;62.42;57.10;;;-2.50;99.90;;;;;;4163437;28;20041;-48
2021/12/20 07:40:28;;;;;;;58.75;53.97;;;-2.40;99.90;;;;;;4159633;28;20037;-48
2021/12/20 07:42:30;;;;;;;61.40;56.17;;;-2.30;99.90;;;;;;4157882;28;20038;-46
2021/12/20 07:44:33;;;;;;;64.93;59.13;;;-2.20;99.90;;;;;;4159257;28;20038;-49
2021/12/20 07:46:35;;;;;;;61.05;56.00;;;-2.20;99.90;;;;;;4163214;28;20084;-47
2021/12/20 07:48:37;;;;;;;61.10;56.08;;;-2.20;99.90;;;;;;4159663;28;20048;-49
2021/12/20 07:50:39;;;;;;;61.72;56.55;;;-2.10;99.90;;;;;;4164401;28;20041;-47
2021/12/20 07:52:41;;;;;;;73.95;63.10;;;-2.00;99.90;;;;;;4162963;28;20375;-49
2021/12/20 07:54:43;;;;;;;68.18;61.38;;;-2.10;99.90;;;;;;4161392;28;20886;-50
2021/12/20 07:56:46;;;;;;;70.97;64.18;;;-2.20;99.90;;;;;;4159889;28;20437;-48
2021/12/20 07:58:48;;;;;;;70.85;63.63;;;-2.10;99.90;;;;;;4163069;28;20037;-48
2021/12/20 08:00:50;;;;;;;68.97;62.22;;;-2.00;99.90;;;;;;4159846;28;20037;-48
2021/12/20 08:02:53;;;;;;;70.72;63.97;;;-2.10;99.90;;;;;;4163105;28;20497;-49
2021/12/20 08:04:56;;;;;;;80.05;70.93;;;-2.00;99.90;;;;;;4158790;28;20375;-49
2021/12/20 08:06:58;;;;;;;71.80;64.38;;;-2.10;99.90;;;;;;4162146;28;20144;-47
2021/12/20 08:09:00;;;;;;;73.85;65.65;;;-2.10;99.90;;;;;;4156440;28;20047;-48
2021/12/20 08:11:04;;;;;;;76.53;68.65;;;-2.10;99.90;;;;;;4158833;28;20132;-47
2021/12/20 08:13:07;;;;;;;81.30;68.00;;;-2.00;99.90;;;;;;4152937;28;23457;-48
2021/12/20 08:15:09;;;;;;;70.10;63.35;;;-1.90;99.90;;;;;;4153768;28;20839;-50
2021/12/20 08:17:11;;;;;;;78.95;70.35;;;-1.80;99.90;;;;;;4153016;28;20038;-49
2021/12/20 08:19:13;;;;;;;77.07;68.15;;;-1.80;99.90;;;;;;4157179;28;20034;-47
2021/12/20 08:21:15;;;;;;;77.65;68.72;;;-1.80;99.90;;;;;;4152073;28;20037;-46
2021/12/20 08:23:23;;;;;;;78.38;70.10;;;-1.80;99.90;;;;;;4160194;28;20037;-48
2021/12/20 08:25:25;;;;;;;83.03;72.10;;;-1.80;99.90;;;;;;4159187;28;20033;-45
2021/12/20 08:27:28;;;;;;;84.10;74.22;;;-1.80;99.90;;;;;;4161798;28;20525;-46
2021/12/20 08:29:29;;;;;;;;;;;-1.60;99.90;;;;;;4161285;28;20037;-46
2021/12/20 08:31:32;;;;;;;84.78;75.47;;;-1.50;99.90;;;;;;4162503;28;19925;-47
2021/12/20 08:33:35;;;;;;;83.03;72.53;;;-1.40;99.90;;;;;;4161122;28;20045;-46
2021/12/20 08:35:37;;;;;;;86.97;73.53;;;-1.30;99.90;;;;;;4161859;28;20038;-50
2021/12/20 08:37:41;;;;;;;81.55;72.47;;;-1.20;99.90;;;;;;4159425;28;20037;-50
2021/12/20 08:39:43;;;;;;;88.55;76.13;;;-1.20;99.90;;;;;;4158311;28;20046;-51
2021/12/20 08:41:46;;;;;;;82.47;73.85;;;-1.20;99.90;;;;;;4160853;28;20047;-48
2021/12/20 08:43:48;;;;;;;82.32;73.50;;;-1.10;99.90;;;;;;4160982;28;20042;-48
2021/12/20 08:45:50;;;;;;;74.35;66.53;;;-1.00;99.90;;;;;;4158963;28;20042;-51
2021/12/20 08:47:53;;;;;;;71.05;64.05;;;-0.80;99.90;;;;;;4162187;28;20127;-46
2021/12/20 08:49:55;;;;;;;67.55;61.00;;;-0.60;99.90;;;;;;4161001;28;20045;-50
2021/12/20 08:51:58;;;;;;;73.00;63.55;;;-0.50;99.90;;;;;;4162116;28;20091;-49
2021/12/20 08:54:00;;;;;;;102.78;79.72;;;-0.40;99.90;;;;;;4148001;28;20041;-45
2021/12/20 08:56:04;;;;;;;;;;;-0.40;99.90;;;;;;4160401;28;20039;-47
2021/12/20 08:58:07;;;;;;;74.85;66.30;;;-0.20;99.90;;;;;;4161055;28;19921;-48
2021/12/20 09:00:13;;;;;;;76.25;68.63;;;-0.10;99.90;;;;;;4161877;28;20405;-46
2021/12/20 09:02:15;;;;;;;74.45;66.53;;;-0.10;99.90;;;;;;4157628;28;20037;-48
2021/12/20 09:04:18;;;;;;;71.35;63.83;;;0.00;99.90;;;;;;4162618;28;20041;-47
2021/12/20 09:06:23;;;;;;;63.35;56.78;;;0.20;99.90;;;;;;4161283;28;20128;-48
2021/12/20 09:08:25;;;;;;;68.40;61.65;;;0.30;99.90;;;;;;4161567;28;20044;-49
2021/12/20 09:10:31;;;;;;;63.38;57.30;;;0.40;99.90;;;;;;4161798;28;20056;-46
2021/12/20 09:12:33;;;;;;;64.60;57.85;;;0.50;99.90;;;;;;4161048;28;20095;-49
2021/12/20 09:14:36;;;;;;;64.30;57.75;;;0.60;99.90;;;;;;4161073;28;20049;-48
2021/12/20 09:16:39;;;;;;;59.42;53.00;;;0.70;99.90;;;;;;4160321;28;20041;-47
2021/12/20 09:18:41;;;;;;;64.93;58.28;;;0.80;99.90;;;;;;4160247;28;20489;-49
2021/12/20 09:20:43;;;;;;;69.15;61.88;;;0.80;99.90;;;;;;4159829;28;20100;-49
2021/12/20 09:22:50;;;;;;;66.47;59.25;;;1.00;99.90;;;;;;4162554;28;20053;-50
2021/12/20 09:24:54;;;;;;;72.22;63.67;;;1.30;99.90;;;;;;4158915;28;20041;-48
2021/12/20 09:26:56;;;;;;;67.72;58.90;;;1.40;99.90;;;;;;4149995;28;20438;-50
2021/12/20 09:28:58;;;;;;;62.75;54.42;;;1.50;99.90;;;;;;4158930;28;20100;-49
2021/12/20 09:31:02;;;;;;;;;;;1.60;99.90;;;;;;4146273;28;20072;-47
2021/12/20 09:33:04;;;;;;;67.72;56.72;;;1.60;99.90;;;;;;4159462;28;19971;-48
2021/12/20 09:35:07;;;;;;;63.00;56.15;;;1.60;99.90;;;;;;4162058;28;20075;-46
2021/12/20 09:37:09;;;;;;;67.10;60.38;;;1.60;99.90;;;;;;4157211;28;20040;-49
2021/12/20 09:39:13;;;;;;;68.57;61.67;;;1.60;99.90;;;;;;4162319;28;20053;-46
2021/12/20 09:41:27;;;;;;;61.10;55.08;;;1.70;99.90;;;;;;4159322;28;20037;-47
2021/12/20 09:43:30;;;;;;;58.97;52.00;;;1.80;99.90;;;;;;4149638;28;20025;-48
2021/12/20 09:45:33;;;;;;;57.75;50.65;;;2.20;99.90;;;;;;4159811;28;20494;-49
2021/12/20 09:47:35;;;;;;;53.47;44.67;;;2.40;99.90;;;;;;4160482;28;20049;-47
2021/12/20 09:49:37;;;;;;;47.97;37.55;;;2.60;99.90;;;;;;4159742;28;20049;-48
2021/12/20 09:51:39;;;;;;;45.63;38.70;;;2.80;99.90;;;;;;4162610;28;20050;-48
2021/12/20 09:53:41;;;;;;;54.17;42.42;;;3.00;99.90;;;;;;4159730;28;20537;-49
2021/12/20 09:55:48;;;;;;;46.22;37.95;;;3.00;99.90;;;;;;4163237;28;20489;-49
2021/12/20 09:57:50;;;;;;;46.63;39.13;;;3.00;99.90;;;;;;4162502;28;20037;-46
2021/12/20 09:59:53;;;;;;;64.75;50.58;;;2.90;99.90;;;;;;4165319;28;20040;-48
2021/12/20 10:01:57;;;;;;;49.95;44.65;;;2.80;99.90;;;;;;4162008;28;20029;-49
2021/12/20 10:03:59;;;;;;;45.35;40.10;;;2.80;99.90;;;;;;4163679;28;20053;-49
2021/12/20 10:06:03;;;;;;;42.88;38.42;;;2.80;99.90;;;;;;4162887;28;20042;-49
2021/12/20 10:08:14;;;;;;;42.63;38.17;;;2.80;99.90;;;;;;4166638;28;20594;-47
2021/12/20 10:10:34;;;;;;;42.85;38.50;;;2.90;99.90;;;;;;4160417;28;20454;-49
2021/12/20 10:12:48;;;;;;;45.03;40.53;;;2.90;99.90;;;;;;4159442;28;20045;-48
2021/12/20 10:15:07;;;;;;;49.60;44.38;;;3.00;99.90;;;;;;4162541;28;20041;-45
2021/12/20 10:17:10;;;;;;;39.90;34.95;;;3.00;99.90;;;;;;4161087;28;20042;-50
2021/12/20 10:19:36;;;;;;;44.33;40.22;;;2.90;99.90;;;;;;4161110;28;20041;-49
2021/12/20 10:21:44;;;;;;;43.25;38.78;;;3.00;99.90;;;;;;4159632;28;20036;-48
2021/12/20 10:23:48;;;;;;;44.25;40.10;;;3.20;99.90;;;;;;4161267;28;20531;-48
2021/12/20 10:26:02;;;;;;;42.85;37.65;;;3.30;99.90;;;;;;4159568;28;20048;-48
2021/12/20 10:28:18;;;;;;;48.97;43.85;;;3.30;99.90;;;;;;4164447;28;20041;-48
2021/12/20 10:30:27;;;;;;;51.17;42.80;;;3.30;99.90;;;;;;4159885;28;20037;-49
2021/12/20 10:32:40;;;;;;;44.05;39.45;;;3.50;99.90;;;;;;4156827;28;20069;-49
2021/12/20 10:34:42;;;;;;;;;;;3.50;99.90;;;;;;4154264;28;20033;-46
2021/12/20 10:36:56;;;;;;;30.48;27.20;;;3.70;99.90;;;;;;4162072;28;19925;-48
2021/12/20 10:39:00;;;;;;;83.45;58.35;;;4.00;99.90;;;;;;4156204;28;20037;-48
2021/12/20 10:41:10;;;;;;;48.40;41.03;;;4.00;99.90;;;;;;4154717;28;20034;-50